createdAt,value
2023-03-13T00:00:37.000Z,988.3
2023-03-13T00:02:03.570Z,988.3
2023-03-13T00:03:10.000Z,988.4
2023-03-13T00:04:35.693Z,988.4
2023-03-13T00:05:51.145Z,988.3
2023-03-13T00:07:07.101Z,988.2
2023-03-13T00:08:23.297Z,988.2
2023-03-13T00:09:39.492Z,988.2
2023-03-13T00:10:46.000Z,988.4
2023-03-13T00:12:11.883Z,988.2
2023-03-13T00:13:28.079Z,988.1
2023-03-13T00:14:44.274Z,988.2
2023-03-13T00:16:00.470Z,988.1
2023-03-13T00:17:16.666Z,988.1
2023-03-13T00:18:32.862Z,988.1
2023-03-13T00:19:49.057Z,988.1
2023-03-13T00:20:55.000Z,988.1
2023-03-13T00:22:20.464Z,988.1
2023-03-13T00:23:27.000Z,988
2023-03-13T00:25:18.401Z,988
2023-03-13T00:26:09.052Z,988
2023-03-13T00:27:25.247Z,987.8
2023-03-13T00:28:41.684Z,987.9
2023-03-13T00:29:56.664Z,987.8
2023-03-13T00:31:12.120Z,987.8
2023-03-13T00:32:28.071Z,987.8
2023-03-13T00:33:33.000Z,987.9
2023-03-13T00:34:58.505Z,987.8
2023-03-13T00:36:14.946Z,987.8
2023-03-13T00:37:21.000Z,987.8
2023-03-13T00:38:47.093Z,987.7
2023-03-13T00:40:03.288Z,987.7
2023-03-13T00:40:43.000Z,987.5
2023-03-13T00:41:19.726Z,987.6
2023-03-13T00:42:35.679Z,987.6
2023-03-13T00:43:51.875Z,987.6
2023-03-13T00:44:58.000Z,987.5
2023-03-13T00:47:31.000Z,987.4
2023-03-13T00:48:56.658Z,987.5
2023-03-13T00:50:12.853Z,987.3
2023-03-13T00:51:19.000Z,987.4
2023-03-13T00:52:44.260Z,987.3
2023-03-13T00:54:00.457Z,987.3
2023-03-13T00:55:16.897Z,987.2
2023-03-13T00:56:32.848Z,987.3
2023-03-13T00:57:49.043Z,987.2
2023-03-13T00:59:05.239Z,987.2
2023-03-13T01:00:20.460Z,987.1
2023-03-13T01:01:35.673Z,987.2
2023-03-13T01:02:51.868Z,987.1
2023-03-13T01:05:24.259Z,987.1
2023-03-13T01:06:40.718Z,987
2023-03-13T01:07:56.651Z,987.1
2023-03-13T01:09:12.847Z,987.1
2023-03-13T01:10:29.042Z,987.1
2023-03-13T01:11:45.238Z,987
2023-03-13T01:13:01.433Z,987
2023-03-13T01:14:17.629Z,987
2023-03-13T01:15:33.824Z,986.9
2023-03-13T01:16:50.021Z,986.9
2023-03-13T01:18:05.232Z,986.8
2023-03-13T01:19:21.428Z,986.8
2023-03-13T01:20:34.000Z,986.8
2023-03-13T01:21:52.841Z,986.6
2023-03-13T01:23:09.037Z,986.6
2023-03-13T01:24:25.233Z,986.7
2023-03-13T01:25:41.428Z,986.7
2023-03-13T01:26:57.624Z,986.6
2023-03-13T01:28:13.819Z,986.7
2023-03-13T01:29:30.016Z,986.6
2023-03-13T01:30:45.239Z,986.6
2023-03-13T01:31:22.000Z,986.5
2023-03-13T01:32:00.451Z,986.5
2023-03-13T01:33:15.672Z,986.5
2023-03-13T01:34:30.884Z,986.5
2023-03-13T01:35:37.000Z,986.5
2023-03-13T01:38:19.472Z,986.5
2023-03-13T01:39:26.000Z,986.5
2023-03-13T01:40:42.000Z,986.4
2023-03-13T01:42:08.060Z,986.4
2023-03-13T01:44:21.392Z,986.4
2023-03-13T01:44:40.702Z,986.4
2023-03-13T01:46:25.769Z,986.4
2023-03-13T01:47:03.000Z,986.4
2023-03-13T01:48:29.039Z,986.3
2023-03-13T01:49:45.483Z,986.3
2023-03-13T01:50:51.000Z,986.1
2023-03-13T01:52:16.886Z,986.2
2023-03-13T01:53:33.085Z,986.1
2023-03-13T01:54:39.000Z,986.2
2023-03-13T01:55:55.000Z,986.1
2023-03-13T01:57:21.428Z,986.1
2023-03-13T01:58:37.624Z,986
2023-03-13T01:59:43.000Z,986
2023-03-13T02:01:08.059Z,986
2023-03-13T02:02:23.528Z,985.9
2023-03-13T02:03:38.492Z,985.8
2023-03-13T02:04:54.935Z,985.9
2023-03-13T02:06:01.000Z,985.8
2023-03-13T02:07:27.081Z,985.8
2023-03-13T02:08:33.000Z,985.8
2023-03-13T02:09:50.000Z,985.8
2023-03-13T02:11:15.668Z,985.7
2023-03-13T02:12:31.865Z,985.7
2023-03-13T02:13:48.061Z,985.7
2023-03-13T02:14:54.000Z,985.6
2023-03-13T02:16:20.452Z,985.5
2023-03-13T02:17:36.648Z,985.4
2023-03-13T02:18:53.085Z,985.5
2023-03-13T02:20:09.040Z,985.4
2023-03-13T02:21:24.251Z,985.4
2023-03-13T02:22:40.695Z,985.4
2023-03-13T02:23:56.643Z,985.4
2023-03-13T02:25:03.000Z,985.3
2023-03-13T02:26:19.000Z,985.3
2023-03-13T02:27:35.000Z,985.2
2023-03-13T02:29:00.455Z,985.2
2023-03-13T02:30:15.667Z,985.3
2023-03-13T02:31:31.862Z,985.4
2023-03-13T02:32:48.059Z,985.4
2023-03-13T02:34:04.254Z,985.3
2023-03-13T02:35:11.000Z,985.4
2023-03-13T02:36:36.647Z,985.3
2023-03-13T02:37:43.000Z,985.3
2023-03-13T02:39:09.039Z,985.2
2023-03-13T02:40:25.236Z,985.2
2023-03-13T02:41:32.000Z,985.2
2023-03-13T02:42:57.628Z,985.2
2023-03-13T02:44:59.641Z,985.2
2023-03-13T02:45:30.264Z,985.1
2023-03-13T02:46:45.476Z,985.1
2023-03-13T02:48:01.428Z,985.1
2023-03-13T02:49:17.623Z,985.1
2023-03-13T02:50:33.820Z,985.1
2023-03-13T02:51:50.016Z,985.1
2023-03-13T02:53:06.213Z,985
2023-03-13T02:54:22.408Z,985
2023-03-13T02:55:37.631Z,985
2023-03-13T02:56:52.842Z,985
2023-03-13T02:58:09.038Z,985
2023-03-13T02:59:25.234Z,984.9
2023-03-13T03:00:40.457Z,984.9
2023-03-13T03:01:55.668Z,984.9
2023-03-13T03:03:10.890Z,984.8
2023-03-13T03:04:26.102Z,984.8
2023-03-13T03:05:42.298Z,984.8
2023-03-13T03:06:58.493Z,984.8
2023-03-13T03:08:14.689Z,984.8
2023-03-13T03:09:30.884Z,984.9
2023-03-13T03:10:47.081Z,984.9
2023-03-13T03:12:03.277Z,984.9
2023-03-13T03:13:19.473Z,984.9
2023-03-13T03:14:32.000Z,984.8
2023-03-13T03:15:51.864Z,984.8
2023-03-13T03:17:08.059Z,984.8
2023-03-13T03:18:24.255Z,984.7
2023-03-13T03:19:40.451Z,984.7
2023-03-13T03:20:55.663Z,984.6
2023-03-13T03:22:55.477Z,984.6
2023-03-13T03:23:28.055Z,984.7
2023-03-13T03:24:34.000Z,984.6
2023-03-13T03:25:51.000Z,984.6
2023-03-13T03:27:16.642Z,984.5
2023-03-13T03:28:32.839Z,984.5
2023-03-13T03:30:07.638Z,984.5
2023-03-13T03:31:03.517Z,984.5
2023-03-13T03:32:19.468Z,984.5
2023-03-13T03:33:26.000Z,984.5
2023-03-13T03:35:15.410Z,984.6
2023-03-13T03:36:07.083Z,984.6
2023-03-13T03:37:23.278Z,984.6
2023-03-13T03:38:30.000Z,984.6
2023-03-13T03:39:46.000Z,984.6
2023-03-13T03:41:10.882Z,984.7
2023-03-13T03:42:27.078Z,984.6
2023-03-13T03:43:43.274Z,984.7
2023-03-13T03:44:59.469Z,984.6
2023-03-13T03:46:15.924Z,984.6
2023-03-13T03:47:31.860Z,984.6
2023-03-13T03:48:48.057Z,984.7
2023-03-13T03:50:04.252Z,984.7
2023-03-13T03:51:20.448Z,984.7
2023-03-13T03:52:36.643Z,984.7
2023-03-13T03:53:52.839Z,984.7
2023-03-13T03:55:09.034Z,984.6
2023-03-13T03:56:25.230Z,984.6
2023-03-13T03:57:40.442Z,984.6
2023-03-13T03:58:56.639Z,984.5
2023-03-13T04:00:12.834Z,984.5
2023-03-13T04:01:29.030Z,984.4
2023-03-13T04:02:45.226Z,984.4
2023-03-13T04:04:01.422Z,984.3
2023-03-13T04:05:17.617Z,984.4
2023-03-13T04:06:32.840Z,984.4
2023-03-13T04:07:48.051Z,984.5
2023-03-13T04:09:04.248Z,984.5
2023-03-13T04:10:11.000Z,984.5
2023-03-13T04:11:26.000Z,984.5
2023-03-13T04:12:41.000Z,984.4
2023-03-13T04:14:07.075Z,984.3
2023-03-13T04:15:23.270Z,984.3
2023-03-13T04:16:39.466Z,984.2
2023-03-13T04:17:55.662Z,984.1
2023-03-13T04:19:11.858Z,984.1
2023-03-13T04:20:18.000Z,984
2023-03-13T04:21:44.493Z,984
2023-03-13T04:23:00.445Z,984
2023-03-13T04:24:16.642Z,984
2023-03-13T04:25:33.084Z,983.9
2023-03-13T04:26:49.279Z,983.8
2023-03-13T04:28:05.230Z,983.8
2023-03-13T04:29:12.000Z,983.8
2023-03-13T04:30:36.638Z,983.8
2023-03-13T04:31:52.835Z,983.8
2023-03-13T04:32:59.000Z,983.9
2023-03-13T04:34:25.227Z,984
2023-03-13T04:35:41.664Z,983.9
2023-03-13T04:36:57.863Z,984
2023-03-13T04:38:57.061Z,983.9
2023-03-13T04:39:28.309Z,983.9
2023-03-13T04:40:43.523Z,983.9
2023-03-13T04:41:59.718Z,983.8
2023-03-13T04:44:00.877Z,983.8
2023-03-13T04:44:30.879Z,983.8
2023-03-13T04:45:47.074Z,983.7
2023-03-13T04:47:03.270Z,983.7
2023-03-13T04:48:10.000Z,983.8
2023-03-13T04:49:26.000Z,983.8
2023-03-13T04:50:51.858Z,983.9
2023-03-13T04:51:58.000Z,983.8
2023-03-13T04:53:24.498Z,983.8
2023-03-13T04:54:40.695Z,983.8
2023-03-13T04:55:56.642Z,983.8
2023-03-13T04:57:12.838Z,983.9
2023-03-13T04:58:19.000Z,983.9
2023-03-13T04:59:44.246Z,983.7
2023-03-13T05:01:00.441Z,983.8
2023-03-13T05:02:16.638Z,983.8
2023-03-13T05:03:33.086Z,983.8
2023-03-13T05:04:49.277Z,983.7
2023-03-13T05:06:05.225Z,983.8
2023-03-13T05:07:20.448Z,983.7
2023-03-13T05:08:27.000Z,983.6
2023-03-13T05:09:52.110Z,983.6
2023-03-13T05:11:07.077Z,983.5
2023-03-13T05:12:13.000Z,983.6
2023-03-13T05:13:39.714Z,983.4
2023-03-13T05:14:46.000Z,983.6
2023-03-13T05:16:11.861Z,983.5
2023-03-13T05:17:28.307Z,983.5
2023-03-13T05:18:44.494Z,983.6
2023-03-13T05:20:00.698Z,983.6
2023-03-13T05:21:16.645Z,983.6
2023-03-13T05:22:32.841Z,983.5
2023-03-13T05:23:49.036Z,983.5
2023-03-13T05:25:05.232Z,983.6
2023-03-13T05:26:21.428Z,983.5
2023-03-13T05:27:36.641Z,983.5
2023-03-13T05:29:16.789Z,983.6
2023-03-13T05:30:09.032Z,983.6
2023-03-13T05:32:22.170Z,983.6
2023-03-13T05:32:41.681Z,983.6
2023-03-13T05:33:54.000Z,983.7
2023-03-13T05:35:13.815Z,983.6
2023-03-13T05:36:19.000Z,983.6
2023-03-13T05:37:44.261Z,983.6
2023-03-13T05:38:51.000Z,983.5
2023-03-13T05:40:16.653Z,983.5
2023-03-13T05:41:22.000Z,983.6
2023-03-13T05:42:37.000Z,983.6
2023-03-13T05:44:03.530Z,983.6
2023-03-13T05:45:19.729Z,983.6
2023-03-13T05:46:35.674Z,983.6
2023-03-13T05:47:52.117Z,983.6
2023-03-13T05:49:08.065Z,983.6
2023-03-13T05:50:24.261Z,983.5
2023-03-13T05:51:40.456Z,983.5
2023-03-13T05:52:56.653Z,983.5
2023-03-13T05:54:12.848Z,983.5
2023-03-13T05:55:29.044Z,983.6
2023-03-13T05:57:02.046Z,983.6
2023-03-13T05:57:52.000Z,983.6
2023-03-13T05:59:16.648Z,983.7
2023-03-13T06:00:32.844Z,983.6
2023-03-13T06:01:49.039Z,983.5
2023-03-13T06:03:05.496Z,983.5
2023-03-13T06:04:21.684Z,983.5
2023-03-13T06:05:37.627Z,983.5
2023-03-13T06:06:44.000Z,983.5
2023-03-13T06:08:10.265Z,983.4
2023-03-13T06:09:15.000Z,983.5
2023-03-13T06:10:40.701Z,983.6
2023-03-13T06:11:46.000Z,983.6
2023-03-13T06:13:10.881Z,983.6
2023-03-13T06:14:27.320Z,983.7
2023-03-13T06:15:43.513Z,983.7
2023-03-13T06:16:59.705Z,983.7
2023-03-13T06:18:06.000Z,983.7
2023-03-13T06:19:31.848Z,983.7
2023-03-13T06:20:48.041Z,983.5
2023-03-13T06:22:04.235Z,983.5
2023-03-13T06:23:20.428Z,983.4
2023-03-13T06:24:27.000Z,983.3
2023-03-13T06:25:53.057Z,983.3
2023-03-13T06:27:09.009Z,983.3
2023-03-13T06:28:25.453Z,983.4
2023-03-13T06:29:40.412Z,983.3
2023-03-13T06:30:56.606Z,983.3
2023-03-13T06:32:03.000Z,983.3
2023-03-13T06:33:28.993Z,983.3
2023-03-13T06:34:35.000Z,983.3
2023-03-13T06:36:01.380Z,983.5
2023-03-13T06:37:17.574Z,983.6
2023-03-13T06:38:23.000Z,983.5
2023-03-13T06:39:38.000Z,983.5
2023-03-13T06:41:04.199Z,983.6
2023-03-13T06:42:10.000Z,983.5
2023-03-13T06:43:35.612Z,983.6
2023-03-13T06:44:50.822Z,983.7
2023-03-13T06:46:07.017Z,983.6
2023-03-13T06:47:13.000Z,983.7
2023-03-13T06:48:39.404Z,983.8
2023-03-13T06:49:55.598Z,983.8
2023-03-13T06:51:11.791Z,983.9
2023-03-13T06:52:18.000Z,983.9
2023-03-13T06:53:44.178Z,984
2023-03-13T06:55:00.372Z,983.9
2023-03-13T06:56:16.566Z,983.9
2023-03-13T06:57:23.000Z,984.1
2023-03-13T06:58:48.953Z,983.9
2023-03-13T07:00:05.147Z,984
2023-03-13T07:01:10.000Z,984
2023-03-13T07:02:27.000Z,984.1
2023-03-13T07:03:53.013Z,984.1
2023-03-13T07:04:59.000Z,984
2023-03-13T07:05:46.000Z,984
2023-03-13T07:06:25.130Z,984
2023-03-13T07:07:41.580Z,984
2023-03-13T07:08:57.517Z,984
2023-03-13T07:10:56.161Z,983.9
2023-03-13T07:12:34.000Z,984
2023-03-13T07:13:50.000Z,984
2023-03-13T07:15:07.000Z,984.1
2023-03-13T07:16:32.721Z,984.1
2023-03-13T07:17:48.914Z,984.1
2023-03-13T07:19:05.108Z,984.1
2023-03-13T07:20:11.000Z,984.1
2023-03-13T07:21:37.495Z,984.2
2023-03-13T07:22:44.000Z,984.1
2023-03-13T07:24:10.128Z,984.1
2023-03-13T07:25:26.075Z,984.1
2023-03-13T07:26:42.269Z,984.1
2023-03-13T07:27:48.000Z,984.2
2023-03-13T07:29:13.920Z,984.1
2023-03-13T07:30:29.867Z,984.2
2023-03-13T07:31:46.061Z,984.2
2023-03-13T07:32:52.000Z,984.1
2023-03-13T07:34:18.448Z,984.1
2023-03-13T07:35:34.642Z,984
2023-03-13T07:36:49.862Z,984.1
2023-03-13T07:38:05.072Z,984.1
2023-03-13T07:39:20.537Z,984
2023-03-13T07:40:41.763Z,984.1
2023-03-13T07:41:50.723Z,984
2023-03-13T07:42:56.000Z,983.9
2023-03-13T07:44:22.126Z,984
2023-03-13T07:45:28.000Z,984
2023-03-13T07:46:54.753Z,984
2023-03-13T07:48:10.952Z,983.9
2023-03-13T07:49:27.152Z,983.8
2023-03-13T07:50:33.000Z,983.9
2023-03-13T07:51:59.288Z,983.9
2023-03-13T07:53:06.000Z,983.9
2023-03-13T07:54:31.914Z,983.8
2023-03-13T07:55:47.868Z,983.8
2023-03-13T07:57:38.238Z,983.7
2023-03-13T07:58:10.000Z,983.7
2023-03-13T07:59:36.450Z,983.6
2023-03-13T08:00:51.659Z,983.6
2023-03-13T08:02:08.100Z,983.6
2023-03-13T08:03:24.047Z,983.5
2023-03-13T08:04:40.240Z,983.6
2023-03-13T08:05:56.434Z,983.5
2023-03-13T08:07:12.880Z,983.6
2023-03-13T08:08:18.000Z,983.5
2023-03-13T08:09:43.312Z,983.5
2023-03-13T08:10:58.523Z,983.4
2023-03-13T08:12:14.470Z,983.5
2023-03-13T08:13:29.680Z,983.5
2023-03-13T08:14:45.873Z,983.5
2023-03-13T08:15:52.000Z,983.5
2023-03-13T08:17:18.260Z,983.6
2023-03-13T08:18:34.454Z,983.6
2023-03-13T08:19:50.887Z,983.6
2023-03-13T08:21:06.841Z,983.6
2023-03-13T08:22:23.034Z,983.5
2023-03-13T08:23:39.228Z,983.6
2023-03-13T08:24:45.000Z,983.5
2023-03-13T08:26:11.615Z,983.6
2023-03-13T08:27:27.808Z,983.5
2023-03-13T08:28:44.001Z,983.5
2023-03-13T08:29:49.000Z,983.6
2023-03-13T08:31:15.405Z,983.6
2023-03-13T08:32:31.849Z,983.5
2023-03-13T08:33:38.000Z,983.6
2023-03-13T08:35:03.985Z,983.4
2023-03-13T08:36:10.000Z,983.5
2023-03-13T08:37:35.399Z,983.5
2023-03-13T08:38:50.608Z,983.6
2023-03-13T08:40:06.804Z,983.5
2023-03-13T08:41:22.266Z,983.5
2023-03-13T08:42:37.518Z,983.5
2023-03-13T08:43:53.427Z,983.6
2023-03-13T08:45:09.620Z,983.5
2023-03-13T08:47:21.733Z,983.5
2023-03-13T08:47:42.258Z,983.5
2023-03-13T08:48:58.201Z,983.5
2023-03-13T08:50:14.394Z,983.5
2023-03-13T08:51:21.000Z,983.5
2023-03-13T08:52:46.782Z,983.4
2023-03-13T08:54:02.976Z,983.4
2023-03-13T08:55:09.000Z,983.5
2023-03-13T08:56:35.363Z,983.6
2023-03-13T08:57:51.556Z,983.5
2023-03-13T08:59:06.766Z,983.4
2023-03-13T09:00:22.960Z,983.4
2023-03-13T09:01:39.154Z,983.3
2023-03-13T09:02:55.347Z,983.3
2023-03-13T09:04:11.541Z,983.4
2023-03-13T09:05:27.981Z,983.4
2023-03-13T09:06:44.168Z,983.4
2023-03-13T09:07:59.148Z,983.4
2023-03-13T09:08:36.000Z,983.4
2023-03-13T09:09:14.358Z,983.4
2023-03-13T09:10:29.578Z,983.4
2023-03-13T09:11:44.788Z,983.5
2023-03-13T09:13:01.230Z,983.5
2023-03-13T09:14:57.000Z,983.4
2023-03-13T09:15:23.000Z,983.4
2023-03-13T09:16:49.562Z,983.4
2023-03-13T09:18:05.755Z,983.4
2023-03-13T09:19:21.949Z,983.5
2023-03-13T09:21:54.336Z,983.4
2023-03-13T09:23:10.529Z,983.4
2023-03-13T09:24:26.723Z,983.3
2023-03-13T09:25:05.000Z,983.4
2023-03-13T09:25:33.000Z,983.4
2023-03-13T09:26:59.110Z,983.4
2023-03-13T09:28:14.320Z,983.4
2023-03-13T09:29:30.513Z,983.4
2023-03-13T09:32:35.577Z,983.3
2023-03-13T09:33:09.000Z,983.4
2023-03-13T09:34:35.288Z,983.3
2023-03-13T09:35:51.725Z,983.3
2023-03-13T09:37:45.324Z,983.3
2023-03-13T09:38:22.895Z,983.3
2023-03-13T09:39:38.105Z,983.2
2023-03-13T09:40:54.298Z,983.3
2023-03-13T09:42:09.518Z,983.2
2023-03-13T09:43:24.981Z,983.2
2023-03-13T09:44:40.921Z,983.3
2023-03-13T09:45:57.116Z,983.3
2023-03-13T09:47:13.309Z,983.2
2023-03-13T09:48:29.503Z,983.3
2023-03-13T09:50:01.278Z,983.2
2023-03-13T09:50:51.000Z,983.1
2023-03-13T09:52:17.104Z,983.2
2023-03-13T09:53:33.298Z,983.1
2023-03-13T09:54:49.491Z,983.1
2023-03-13T09:56:05.685Z,983.1
2023-03-13T09:57:21.878Z,983
2023-03-13T09:58:38.072Z,983
2023-03-13T09:59:54.265Z,983
2023-03-13T10:01:10.459Z,983.1
2023-03-13T10:02:26.652Z,983.1
2023-03-13T10:03:43.100Z,983.1
2023-03-13T10:04:59.039Z,983
2023-03-13T10:06:15.482Z,983
2023-03-13T10:07:30.442Z,983
2023-03-13T10:08:45.663Z,982.9
2023-03-13T10:10:00.872Z,983
2023-03-13T10:11:16.093Z,983
2023-03-13T10:12:31.303Z,983
2023-03-13T10:13:47.496Z,982.9
2023-03-13T10:15:03.690Z,982.9
2023-03-13T10:16:20.129Z,982.9
2023-03-13T10:17:36.077Z,983
2023-03-13T10:18:52.270Z,982.8
2023-03-13T10:20:08.717Z,982.8
2023-03-13T10:21:24.910Z,982.8
2023-03-13T10:22:41.103Z,982.9
2023-03-13T10:23:57.045Z,982.8
2023-03-13T10:25:13.239Z,982.8
2023-03-13T10:26:29.432Z,982.8
2023-03-13T10:27:36.000Z,982.8
2023-03-13T10:29:01.080Z,982.8
2023-03-13T10:30:17.029Z,982.8
2023-03-13T10:31:33.222Z,982.8
2023-03-13T10:32:49.660Z,982.8
2023-03-13T10:34:05.855Z,982.7
2023-03-13T10:36:13.147Z,982.8
2023-03-13T10:36:37.996Z,982.7
2023-03-13T10:37:53.216Z,982.7
2023-03-13T10:39:46.749Z,982.7
2023-03-13T10:40:24.619Z,982.7
2023-03-13T10:41:39.840Z,982.7
2023-03-13T10:42:55.049Z,982.7
2023-03-13T10:44:11.497Z,982.8
2023-03-13T10:45:27.437Z,982.6
2023-03-13T10:46:43.630Z,982.7
2023-03-13T10:48:04.129Z,982.6
2023-03-13T10:49:06.000Z,982.6
2023-03-13T10:50:32.210Z,982.7
2023-03-13T10:51:48.404Z,982.6
2023-03-13T10:53:04.597Z,982.6
2023-03-13T10:54:21.034Z,982.7
2023-03-13T10:55:37.226Z,982.5
2023-03-13T10:56:53.178Z,982.4
2023-03-13T10:58:09.371Z,982.5
2023-03-13T10:59:24.582Z,982.5
2023-03-13T11:01:26.018Z,982.6
2023-03-13T11:01:56.969Z,982.4
2023-03-13T11:03:13.163Z,982.4
2023-03-13T11:04:29.606Z,982.5
2023-03-13T11:05:45.549Z,982.6
2023-03-13T11:07:01.743Z,982.5
2023-03-13T11:08:16.962Z,982.5
2023-03-13T11:09:22.000Z,982.4
2023-03-13T11:10:48.613Z,982.4
2023-03-13T11:12:04.809Z,982.2
2023-03-13T11:13:21.007Z,982.2
2023-03-13T11:14:27.000Z,982.2
2023-03-13T11:15:53.386Z,982.2
2023-03-13T11:17:09.586Z,982.2
2023-03-13T11:18:25.528Z,982.1
2023-03-13T11:19:41.965Z,982.1
2023-03-13T11:20:48.000Z,982.1
2023-03-13T11:22:14.108Z,982
2023-03-13T11:23:30.302Z,982
2023-03-13T11:24:46.496Z,981.9
2023-03-13T11:25:52.000Z,981.9
2023-03-13T11:27:08.000Z,981.8
2023-03-13T11:28:34.093Z,981.8
2023-03-13T11:29:50.536Z,981.7
2023-03-13T11:31:06.735Z,981.7
2023-03-13T11:32:13.000Z,981.7
2023-03-13T11:33:38.867Z,981.7
2023-03-13T11:34:44.000Z,981.6
2023-03-13T11:35:59.000Z,981.7
2023-03-13T11:37:24.517Z,981.6
2023-03-13T11:38:39.727Z,981.5
2023-03-13T11:39:45.000Z,981.4
2023-03-13T11:41:10.158Z,981.4
2023-03-13T11:42:26.601Z,981.4
2023-03-13T11:43:42.546Z,981.3
2023-03-13T11:44:58.739Z,981.3
2023-03-13T11:46:15.174Z,981.3
2023-03-13T11:47:31.367Z,981.3
2023-03-13T11:48:47.320Z,981.3
2023-03-13T11:49:54.000Z,981.2
2023-03-13T11:51:19.955Z,981.3
2023-03-13T11:52:36.149Z,981.3
2023-03-13T11:53:52.094Z,981.2
2023-03-13T11:55:08.545Z,981.1
2023-03-13T11:56:14.000Z,981.1
2023-03-13T11:57:30.000Z,981.1
2023-03-13T11:58:46.000Z,981.2
2023-03-13T12:00:12.326Z,981.2
2023-03-13T12:01:18.000Z,981.2
2023-03-13T12:02:34.000Z,981.2
2023-03-13T12:03:51.000Z,981.2
2023-03-13T12:05:16.853Z,981.3
2023-03-13T12:06:32.073Z,981.2
2023-03-13T12:07:47.283Z,981.2
2023-03-13T12:09:11.355Z,981.1
2023-03-13T12:10:18.950Z,980.9
2023-03-13T12:11:24.000Z,981
2023-03-13T12:12:40.000Z,981.1
2023-03-13T12:14:17.145Z,980.9
2023-03-13T12:14:46.000Z,981
2023-03-13T12:15:22.736Z,980.9
2023-03-13T12:16:38.682Z,981.1
2023-03-13T12:17:55.132Z,980.9
2023-03-13T12:19:11.318Z,980.9
2023-03-13T12:21:43.703Z,980.9
2023-03-13T12:22:59.903Z,980.9
2023-03-13T12:24:06.000Z,980.9
2023-03-13T12:25:32.038Z,980.9
2023-03-13T12:26:48.482Z,980.9
2023-03-13T12:27:53.000Z,980.9
2023-03-13T12:29:10.000Z,981
2023-03-13T12:30:35.830Z,980.9
2023-03-13T12:31:52.023Z,980.9
2023-03-13T12:33:08.217Z,980.8
2023-03-13T12:34:14.000Z,980.9
2023-03-13T12:35:40.604Z,980.9
2023-03-13T12:36:46.000Z,981
2023-03-13T12:38:11.276Z,980.9
2023-03-13T12:39:26.498Z,980.7
2023-03-13T12:40:41.713Z,980.8
2023-03-13T12:41:48.000Z,980.8
2023-03-13T12:43:14.091Z,980.7
2023-03-13T12:44:30.297Z,980.5
2023-03-13T12:45:36.000Z,980.6
2023-03-13T12:46:52.000Z,980.6
2023-03-13T12:48:18.627Z,980.6
2023-03-13T12:49:25.000Z,980.5
2023-03-13T12:50:51.014Z,980.6
2023-03-13T12:52:07.451Z,980.6
2023-03-13T12:53:23.641Z,980.5
2023-03-13T12:54:30.000Z,980.6
2023-03-13T12:55:56.035Z,980.5
2023-03-13T12:57:10.999Z,980.4
2023-03-13T12:58:27.438Z,980.5
2023-03-13T12:59:33.000Z,980.4
2023-03-13T13:00:59.582Z,980.4
2023-03-13T13:01:37.000Z,980.3
2023-03-13T13:02:15.775Z,980.4
2023-03-13T13:03:22.000Z,980.4
2023-03-13T13:04:38.000Z,980.4
2023-03-13T13:06:03.633Z,980.4
2023-03-13T13:08:34.058Z,980.2
2023-03-13T13:09:49.023Z,980.3
2023-03-13T13:10:55.000Z,980.4
2023-03-13T13:12:21.411Z,980.2
2023-03-13T13:13:37.606Z,980.3
2023-03-13T13:14:44.000Z,980.2
2023-03-13T13:16:00.000Z,980.2
2023-03-13T13:17:16.000Z,980.2
2023-03-13T13:18:32.000Z,980.2
2023-03-13T13:19:58.573Z,980.2
2023-03-13T13:21:05.000Z,980.3
2023-03-13T13:21:53.000Z,980
2023-03-13T13:22:30.960Z,980.2
2023-03-13T13:23:47.398Z,980.2
2023-03-13T13:25:03.348Z,980.2
2023-03-13T13:26:18.558Z,980
2023-03-13T13:28:50.945Z,979.9
2023-03-13T13:30:07.398Z,979.7
2023-03-13T13:31:23.582Z,979.7
2023-03-13T13:32:39.778Z,979.7
2023-03-13T13:33:46.000Z,979.6
2023-03-13T13:35:11.912Z,979.6
2023-03-13T13:35:49.000Z,979.5
2023-03-13T13:36:28.106Z,979.5
2023-03-13T13:37:34.000Z,979.6
2023-03-13T13:38:59.520Z,979.6
2023-03-13T13:40:05.000Z,979.7
2023-03-13T13:42:47.363Z,979.6
2023-03-13T13:44:02.338Z,979.4
2023-03-13T13:45:17.797Z,979.5
2023-03-13T13:46:24.000Z,979.5
2023-03-13T13:47:40.000Z,979.4
2023-03-13T13:48:56.000Z,979.4
2023-03-13T13:50:12.000Z,979.4
2023-03-13T13:51:38.765Z,979.5
2023-03-13T13:52:54.953Z,979.4
2023-03-13T13:54:10.903Z,979.4
2023-03-13T13:55:17.000Z,979.3
2023-03-13T13:56:43.291Z,979.3
2023-03-13T13:57:59.484Z,979.3
2023-03-13T13:59:15.678Z,979.4
2023-03-13T14:00:31.872Z,979.4
2023-03-13T14:01:37.000Z,979.2
2023-03-13T14:03:03.275Z,979.2
2023-03-13T14:04:09.000Z,979.4
2023-03-13T14:05:26.000Z,979.2
2023-03-13T14:06:50.878Z,979.2
2023-03-13T14:08:17.318Z,979.2
2023-03-13T14:09:23.518Z,979.1
2023-03-13T14:10:28.000Z,979.1
2023-03-13T14:11:53.943Z,979.1
2023-03-13T14:13:09.889Z,979.1
2023-03-13T14:14:25.109Z,979.2
2023-03-13T14:15:30.000Z,979.1
2023-03-13T14:16:56.513Z,979
2023-03-13T14:18:03.000Z,979
2023-03-13T14:19:19.000Z,978.9
2023-03-13T14:20:35.000Z,979
2023-03-13T14:22:01.533Z,979
2023-03-13T14:23:07.000Z,979
2023-03-13T14:24:33.925Z,978.9
2023-03-13T14:25:50.120Z,978.9
2023-03-13T14:26:56.000Z,978.8
2023-03-13T14:28:22.503Z,978.9
2023-03-13T14:29:38.450Z,978.8
2023-03-13T14:30:54.644Z,978.7
2023-03-13T14:32:10.110Z,978.8
2023-03-13T14:33:55.161Z,978.7
2023-03-13T14:34:42.241Z,978.9
2023-03-13T14:35:48.000Z,978.6
2023-03-13T14:37:05.000Z,978.7
2023-03-13T14:38:30.822Z,978.7
2023-03-13T14:39:47.270Z,978.7
2023-03-13T14:40:52.000Z,978.7
2023-03-13T14:42:17.689Z,978.8
2023-03-13T14:43:24.000Z,978.9
2023-03-13T14:44:40.000Z,978.9
2023-03-13T14:45:56.000Z,978.7
2023-03-13T14:47:22.221Z,978.7
2023-03-13T14:48:28.000Z,978.7
2023-03-13T14:49:45.000Z,978.7
2023-03-13T14:51:01.000Z,978.7
2023-03-13T14:52:27.246Z,978.6
2023-03-13T14:53:33.000Z,978.5
2023-03-13T14:54:59.630Z,978.5
2023-03-13T14:56:06.000Z,978.5
2023-03-13T14:57:22.000Z,978.4
2023-03-13T14:58:47.230Z,978.5
2023-03-13T15:00:03.419Z,978.3
2023-03-13T15:01:09.000Z,978.3
2023-03-13T15:02:35.561Z,978.3
2023-03-13T15:04:46.709Z,978.2
2023-03-13T15:05:08.190Z,978.1
2023-03-13T15:06:24.142Z,978.1
2023-03-13T15:07:40.585Z,978.1
2023-03-13T15:08:55.555Z,978
2023-03-13T15:10:11.019Z,978.1
2023-03-13T15:11:26.232Z,978
2023-03-13T15:12:04.000Z,977.7
2023-03-13T15:12:31.000Z,977.8
2023-03-13T15:13:58.284Z,977.8
2023-03-13T15:15:13.582Z,977.8
2023-03-13T15:16:29.776Z,977.8
2023-03-13T15:19:02.163Z,977.6
2023-03-13T15:20:18.603Z,977.6
2023-03-13T15:21:34.550Z,977.7
2023-03-13T15:22:50.989Z,977.7
2023-03-13T15:23:57.000Z,977.5
2023-03-13T15:25:13.000Z,977.6
2023-03-13T15:26:39.579Z,977.4
2023-03-13T15:27:55.762Z,977.4
2023-03-13T15:29:01.000Z,977.3
2023-03-13T15:30:17.000Z,977.5
2023-03-13T15:31:43.115Z,977.5
2023-03-13T15:32:59.557Z,977.4
2023-03-13T15:34:05.000Z,977.5
2023-03-13T15:35:31.695Z,977.5
2023-03-13T15:37:38.667Z,977.4
2023-03-13T15:37:53.000Z,977.4
2023-03-13T15:39:18.569Z,977.4
2023-03-13T15:41:41.000Z,977.4
2023-03-13T15:42:56.000Z,977.5
2023-03-13T15:44:21.388Z,977.5
2023-03-13T15:45:37.335Z,977.4
2023-03-13T15:46:43.000Z,977.5
2023-03-13T15:48:09.985Z,977.4
2023-03-13T15:49:16.000Z,977.3
2023-03-13T15:50:32.000Z,977.4
2023-03-13T15:51:48.000Z,977.4
2023-03-13T15:53:04.000Z,977.4
2023-03-13T15:53:54.000Z,977.3
2023-03-13T15:54:21.000Z,977.3
2023-03-13T15:55:47.159Z,977.4
2023-03-13T15:57:09.754Z,977.3
2023-03-13T15:58:09.000Z,977.3
2023-03-13T16:00:41.000Z,977.2
2023-03-13T16:02:16.523Z,977.3
2023-03-13T16:03:13.000Z,977.2
2023-03-13T16:04:39.518Z,977.2
2023-03-13T16:05:45.000Z,977.1
2023-03-13T16:07:26.277Z,977.1
2023-03-13T16:08:28.104Z,977
2023-03-13T16:09:05.000Z,976.7
2023-03-13T16:09:43.081Z,977
2023-03-13T16:10:58.536Z,976.9
2023-03-13T16:12:04.000Z,976.9
2023-03-13T16:12:52.000Z,976.6
2023-03-13T16:13:21.000Z,976.9
2023-03-13T16:16:03.074Z,976.7
2023-03-13T16:17:18.295Z,976.7
2023-03-13T16:20:42.251Z,976.5
2023-03-13T16:20:56.000Z,976.5
2023-03-13T16:22:12.000Z,976.4
2023-03-13T16:23:38.288Z,976.4
2023-03-13T16:24:44.000Z,976.3
2023-03-13T16:26:10.929Z,976.5